Time;durP1;ratioP1;P1;durP2;ratioP2;P2;SDS_P1;SDS_P2;PMS_P1;PMS_P2;Temp;Humidity;BMP_temperature;BMP_pressure;BME280_temperature;BME280_humidity;BME280_pressure;Samples;Min_cycle;Max_cycle;Signal;HPM_P1;HPM_P2
2023/09/27 00:02:00;;;;;;;10.52;7.15;;;;;;;13.56;80.69;102364.78;5028364;28;20388;-74
2023/09/27 00:04:28;;;;;;;12.73;6.72;;;;;;;13.56;80.87;102349.00;5026844;28;20057;-75
2023/09/27 00:06:55;;;;;;;13.68;7.63;;;;;;;13.61;80.92;102358.63;5013888;28;20046;-74
2023/09/27 00:09:22;;;;;;;12.35;8.07;;;;;;;13.62;81.06;102356.84;5012030;28;20050;-74
2023/09/27 00:11:49;;;;;;;16.90;8.30;;;;;;;13.63;81.04;102358.59;5017814;28;20403;-74
2023/09/27 00:14:16;;;;;;;16.63;8.20;;;;;;;13.65;81.28;102355.06;5014262;28;20057;-74
2023/09/27 00:16:43;;;;;;;15.23;9.55;;;;;;;13.64;81.50;102349.84;5021410;28;20052;-74
2023/09/27 00:19:11;;;;;;;19.27;8.50;;;;;;;13.72;81.81;102358.56;5014995;28;20108;-75
2023/09/27 00:21:38;;;;;;;17.52;9.25;;;;;;;13.73;81.73;102362.91;5012734;28;20042;-77
2023/09/27 00:24:05;;;;;;;19.40;9.13;;;;;;;13.76;81.74;102359.41;5015136;28;20479;-75
2023/09/27 00:26:32;;;;;;;16.20;9.43;;;;;;;13.78;81.81;102347.13;5014059;28;20046;-72
2023/09/27 00:28:59;;;;;;;17.90;10.35;;;;;;;13.81;82.09;102352.38;5012613;28;20081;-72
2023/09/27 00:31:26;;;;;;;19.80;9.73;;;;;;;13.83;82.08;102355.84;5016302;28;20045;-71
2023/09/27 00:33:52;;;;;;;29.40;10.23;;;;;;;13.85;81.78;102356.72;5015209;28;20053;-72
2023/09/27 00:36:21;;;;;;;30.13;10.98;;;;;;;13.88;82.43;102354.06;5015548;28;20056;-71
2023/09/27 00:38:48;;;;;;;35.78;11.38;;;;;;;13.89;82.26;102348.81;5014490;28;20046;-71
2023/09/27 00:41:14;;;;;;;29.08;10.60;;;;;;;13.91;82.23;102347.00;5018628;28;20050;-71
2023/09/27 00:43:41;;;;;;;26.15;10.60;;;;;;;13.93;82.39;102333.88;5015264;28;20046;-71
2023/09/27 00:46:08;;;;;;;28.45;9.82;;;;;;;13.98;82.26;102334.72;5017995;28;20057;-72
2023/09/27 00:48:37;;;;;;;27.13;9.82;;;;;;;13.97;82.24;102327.72;5011795;28;20046;-73
2023/09/27 00:51:06;;;;;;;21.90;9.02;;;;;;;14.02;82.06;102331.19;5015777;28;20687;-71
2023/09/27 00:53:35;;;;;;;18.33;9.70;;;;;;;14.02;82.24;102318.03;5018096;28;20052;-73
2023/09/27 00:56:02;;;;;;;23.85;9.23;;;;;;;14.06;82.17;102319.78;5016634;28;20057;-71
2023/09/27 00:58:32;;;;;;;18.92;8.95;;;;;;;13.94;82.04;102296.22;5012835;28;20053;-72
2023/09/27 01:00:59;;;;;;;24.33;10.75;;;;;;;14.11;82.07;102322.34;5016451;28;20057;-72
2023/09/27 01:03:26;;;;;;;20.52;10.68;;;;;;;14.13;82.19;102331.97;5016256;28;20695;-72
2023/09/27 01:05:54;;;;;;;20.65;9.18;;;;;;;14.15;82.32;102327.56;5015373;28;20049;-72
2023/09/27 01:08:21;;;;;;;15.98;8.20;;;;;;;14.17;82.23;102331.06;5014194;28;20046;-72
2023/09/27 01:10:49;;;;;;;21.52;10.57;;;;;;;14.21;82.19;102328.41;5014456;28;20141;-72
2023/09/27 01:13:16;;;;;;;16.38;8.90;;;;;;;14.22;82.06;102335.41;4989862;28;20168;-72
2023/09/27 01:15:43;;;;;;;21.75;11.43;;;;;;;14.25;82.20;102327.50;5010805;28;20049;-71
2023/09/27 01:18:10;;;;;;;22.25;11.05;;;;;;;14.27;82.28;102336.25;5012658;28;20510;-72
2023/09/27 01:20:37;;;;;;;27.40;11.75;;;;;;;14.29;82.32;102337.09;5017758;28;20056;-72
2023/09/27 01:23:05;;;;;;;21.77;9.70;;;;;;;14.30;82.29;102333.59;5018327;28;20041;-72
2023/09/27 01:25:34;;;;;;;24.27;9.07;;;;;;;14.31;82.30;102330.91;5017813;28;20059;-73
2023/09/27 01:28:03;;;;;;;15.05;7.50;;;;;;;14.32;82.26;102332.69;5013601;28;20045;-72
2023/09/27 01:30:32;;;;;;;14.88;8.50;;;;;;;14.35;82.30;102330.03;5010667;28;20048;-72
2023/09/27 01:33:00;;;;;;;14.15;7.22;;;;;;;14.37;82.34;102325.63;5013147;28;20045;-72
2023/09/27 01:35:27;;;;;;;16.63;6.88;;;;;;;14.38;82.29;102319.47;5017496;28;20526;-76
2023/09/27 01:37:54;;;;;;;36.00;7.30;;;;;;;14.40;82.21;102317.72;5012219;28;20052;-71
2023/09/27 01:40:26;;;;;;;22.42;6.05;;;;;;;14.42;82.38;102308.94;5013596;28;20757;-71
2023/09/27 01:42:53;;;;;;;20.48;7.32;;;;;;;14.43;82.32;102301.03;5011797;28;20077;-73
2023/09/27 01:45:20;;;;;;;20.88;5.93;;;;;;;14.46;82.28;102294.84;5016294;28;20038;-72
2023/09/27 01:47:47;;;;;;;24.50;6.72;;;;;;;14.46;82.25;102295.75;5024029;28;20049;-89
2023/09/27 01:50:14;;;;;;;23.17;6.10;;;;;;;14.48;82.31;102293.09;5020376;28;20060;-88
2023/09/27 01:52:41;;;;;;;17.55;5.60;;;;;;;14.48;82.10;102288.69;5019711;28;20049;-88
2023/09/27 01:55:09;;;;;;;15.90;6.13;;;;;;;14.44;82.09;102275.63;5021462;28;20137;-88
2023/09/27 01:57:37;;;;;;;21.52;5.75;;;;;;;14.50;82.18;102286.06;5023777;28;20284;-89
2023/09/27 02:00:09;;;;;;;15.60;5.70;;;;;;;14.51;82.09;102283.41;5019430;28;20046;-88
2023/09/27 02:02:37;;;;;;;12.15;5.15;;;;;;;14.52;81.98;102282.56;5023300;28;20095;-88
2023/09/27 02:05:04;;;;;;;8.10;5.18;;;;;;;14.53;82.05;102281.66;5021721;28;20053;-88
2023/09/27 02:07:31;;;;;;;12.50;5.40;;;;;;;14.52;81.84;102281.69;5024630;28;20056;-89
2023/09/27 02:09:58;;;;;;;13.10;5.95;;;;;;;14.52;81.94;102277.31;5019715;28;20052;-89
2023/09/27 02:12:25;;;;;;;17.95;6.00;;;;;;;14.56;81.91;102280.78;5020200;28;20137;-89
2023/09/27 02:14:53;;;;;;;10.77;5.05;;;;;;;14.57;81.97;102282.50;5022528;28;21424;-89
2023/09/27 02:17:20;;;;;;;10.05;5.70;;;;;;;14.58;81.90;102279.88;5030665;28;20128;-89
2023/09/27 02:19:47;;;;;;;18.15;6.13;;;;;;;14.59;81.87;102276.34;5018725;28;20710;-90
2023/09/27 02:22:14;;;;;;;13.07;5.88;;;;;;;14.60;81.97;102274.59;5028283;28;20048;-88
2023/09/27 02:24:41;;;;;;;9.55;5.65;;;;;;;14.60;82.16;102267.56;5019611;28;20050;-88
2023/09/27 02:27:10;;;;;;;10.73;5.65;;;;;;;14.61;82.11;102260.56;5019127;28;20081;-88
2023/09/27 02:29:38;;;;;;;10.35;5.63;;;;;;;14.62;82.11;102257.88;5022708;28;20043;-88
2023/09/27 02:32:06;;;;;;;17.65;5.35;;;;;;;14.65;82.04;102258.75;5022567;28;20109;-89
2023/09/27 02:34:34;;;;;;;28.20;5.30;;;;;;;14.63;82.09;102258.78;5026714;28;20396;-88
2023/09/27 02:37:00;;;;;;;14.55;5.45;;;;;;;14.66;82.13;102263.13;5031148;28;20041;-89
2023/09/27 02:39:28;;;;;;;13.88;4.78;;;;;;;14.67;82.29;102262.25;5024274;28;20053;-89
2023/09/27 02:41:56;;;;;;;14.75;5.20;;;;;;;14.64;82.12;102259.66;5027759;28;20126;-89
2023/09/27 02:44:23;;;;;;;29.15;5.07;;;;;;;14.69;82.35;102263.09;5023575;28;20056;-89
2023/09/27 02:46:52;;;;;;;15.70;5.88;;;;;;;14.70;82.41;102259.56;5023195;28;20045;-72
2023/09/27 02:49:20;;;;;;;43.90;7.13;;;;;;;14.71;82.33;102245.53;5018649;28;20042;-72
2023/09/27 02:51:47;;;;;;;52.75;6.68;;;;;;;14.71;82.53;102243.75;5017544;28;20049;-74
2023/09/27 02:54:14;;;;;;;18.77;6.25;;;;;;;14.72;82.11;102247.28;5011324;28;20120;-74
2023/09/27 02:56:42;;;;;;;15.77;7.07;;;;;;;14.73;82.72;102246.38;5024165;28;20131;-78
2023/09/27 02:59:10;;;;;;;14.48;6.35;;;;;;;14.75;82.36;102250.75;5016728;28;20124;-78
2023/09/27 03:01:40;;;;;;;19.63;6.93;;;;;;;14.77;82.30;102248.06;5020006;28;20124;-80
2023/09/27 03:04:07;;;;;;;18.13;7.43;;;;;;;14.75;82.47;102244.63;5018059;28;20054;-77
2023/09/27 03:06:37;;;;;;;14.98;7.03;;;;;;;14.78;82.46;102240.19;5020935;28;20487;-78
2023/09/27 03:09:04;;;;;;;22.85;8.40;;;;;;;14.80;82.55;102240.16;5025248;28;20037;-78
2023/09/27 03:11:33;;;;;;;19.73;6.55;;;;;;;14.79;82.54;102236.66;5026115;28;20049;-78
2023/09/27 03:14:00;;;;;;;13.48;6.53;;;;;;;14.75;82.54;102224.44;5030810;28;20053;-77
2023/09/27 03:16:27;;;;;;;11.10;6.63;;;;;;;14.83;82.46;102227.84;5020157;28;20157;-77
2023/09/27 03:18:54;;;;;;;10.15;6.15;;;;;;;14.84;82.52;102223.44;5030618;28;20714;-78
2023/09/27 03:21:21;;;;;;;11.52;6.32;;;;;;;14.82;82.46;102214.69;5018406;28;20471;-79
2023/09/27 03:23:50;;;;;;;10.65;6.30;;;;;;;14.85;82.39;102214.66;5021116;28;20115;-77
2023/09/27 03:26:17;;;;;;;8.82;5.30;;;;;;;14.86;82.46;102211.16;5020814;28;20904;-78
2023/09/27 03:28:44;;;;;;;10.00;6.35;;;;;;;14.88;82.36;102219.88;5022820;28;20054;-77
2023/09/27 03:31:10;;;;;;;8.73;5.95;;;;;;;14.88;82.19;102222.50;5013539;28;20049;-78
2023/09/27 03:33:37;;;;;;;10.52;5.32;;;;;;;14.89;82.10;102226.03;5022349;28;20687;-77
2023/09/27 03:36:05;;;;;;;9.65;5.43;;;;;;;14.89;82.03;102224.25;5019537;28;20372;-78
2023/09/27 03:38:32;;;;;;;11.63;5.97;;;;;;;14.85;82.22;102214.66;5026918;28;20045;-77
2023/09/27 03:41:00;;;;;;;10.43;6.00;;;;;;;14.90;82.12;102218.09;5016962;28;20128;-77
2023/09/27 03:43:27;;;;;;;7.18;5.57;;;;;;;14.90;82.39;102215.47;5027341;28;20045;-77
2023/09/27 03:45:54;;;;;;;8.32;6.18;;;;;;;14.91;82.31;102208.44;5024395;28;20041;-78
2023/09/27 03:48:21;;;;;;;9.05;4.85;;;;;;;14.90;82.31;102206.72;5020068;28;20052;-78
2023/09/27 03:50:49;;;;;;;9.13;4.85;;;;;;;14.93;82.19;102210.16;5014452;28;20049;-77
2023/09/27 03:53:15;;;;;;;9.50;5.47;;;;;;;14.94;82.18;102203.13;5026270;28;20056;-78
2023/09/27 03:55:42;;;;;;;24.70;5.18;;;;;;;14.89;82.15;102194.47;5018262;28;20050;-73
2023/09/27 03:58:10;;;;;;;15.07;5.55;;;;;;;14.95;82.18;102195.22;5017973;28;20115;-74
2023/09/27 04:00:37;;;;;;;5.28;4.18;;;;;;;14.96;82.25;102204.84;5010360;28;20052;-73
2023/09/27 04:03:04;;;;;;;7.63;4.38;;;;;;;14.95;82.19;102202.25;5021205;28;20046;-74
2023/09/27 04:05:31;;;;;;;6.85;4.45;;;;;;;14.96;82.30;102204.84;5014460;28;20042;-73
2023/09/27 04:07:58;;;;;;;7.45;4.90;;;;;;;14.98;82.32;102204.84;5021902;28;20053;-73
2023/09/27 04:10:27;;;;;;;6.70;4.78;;;;;;;14.98;82.31;102196.94;5016054;28;20046;-74
2023/09/27 04:12:54;;;;;;;5.57;4.38;;;;;;;14.98;82.20;102197.81;5021062;28;20136;-73
2023/09/27 04:15:22;;;;;;;7.63;4.68;;;;;;;14.99;82.25;102196.91;5014874;28;20049;-74
2023/09/27 04:17:49;;;;;;;6.18;4.53;;;;;;;15.00;82.50;102192.53;5018778;28;20045;-75
2023/09/27 04:20:18;;;;;;;12.00;4.10;;;;;;;15.00;81.94;102189.91;5017381;28;20051;-74
2023/09/27 04:22:47;;;;;;;12.48;4.88;;;;;;;15.00;82.07;102198.66;5018626;28;20517;-74
2023/09/27 04:25:15;;;;;;;11.15;4.75;;;;;;;15.01;82.17;102194.28;5020127;28;20672;-74
2023/09/27 04:27:43;;;;;;;12.63;4.53;;;;;;;14.97;82.54;102185.56;5014301;28;20054;-74
2023/09/27 04:30:12;;;;;;;8.70;4.55;;;;;;;15.02;82.28;102188.97;5012590;28;20108;-73
2023/09/27 04:32:42;;;;;;;11.95;4.72;;;;;;;15.02;82.39;102191.59;5011827;28;20050;-75
2023/09/27 04:35:10;;;;;;;5.88;4.40;;;;;;;15.03;82.21;102188.09;5018584;28;20052;-74
2023/09/27 04:37:37;;;;;;;7.60;3.90;;;;;;;15.02;82.23;102182.84;5009740;28;20512;-74
2023/09/27 04:40:07;;;;;;;8.25;4.00;;;;;;;15.04;82.22;102188.97;5014285;28;20048;-73
2023/09/27 04:42:34;;;;;;;6.28;4.43;;;;;;;15.05;82.22;102195.97;5011764;28;20049;-74
2023/09/27 04:45:01;;;;;;;6.13;4.57;;;;;;;15.04;82.14;102191.59;5011456;28;20045;-74
2023/09/27 04:47:27;;;;;;;5.35;3.63;;;;;;;15.05;82.13;102191.59;5010102;28;20046;-75
2023/09/27 04:49:56;;;;;;;4.35;3.67;;;;;;;15.06;82.21;102188.06;5011274;28;20054;-74
2023/09/27 04:52:26;;;;;;;8.55;4.25;;;;;;;15.05;82.32;102181.06;5011950;28;21419;-73
2023/09/27 04:54:56;;;;;;;14.45;4.70;;;;;;;15.06;82.15;102182.78;5019624;28;20052;-74
2023/09/27 04:57:23;;;;;;;8.88;4.82;;;;;;;15.07;82.41;102173.13;5013152;28;20053;-73
2023/09/27 04:59:51;;;;;;;7.90;5.05;;;;;;;15.09;82.34;102165.22;5014090;28;20516;-73
2023/09/27 05:02:18;;;;;;;8.88;4.68;;;;;;;15.09;82.27;102163.47;5013013;28;20435;-74
2023/09/27 05:04:46;;;;;;;9.65;5.03;;;;;;;15.09;82.42;102152.94;5020894;28;20050;-73
2023/09/27 05:07:14;;;;;;;6.03;3.70;;;;;;;15.10;82.39;102149.38;5016721;28;20072;-74
2023/09/27 05:09:41;;;;;;;6.28;4.03;;;;;;;15.10;82.33;102159.06;5016763;28;20045;-75
2023/09/27 05:12:08;;;;;;;5.18;4.00;;;;;;;15.10;82.14;102154.66;5013636;28;20419;-74
2023/09/27 05:14:35;;;;;;;9.25;5.28;;;;;;;15.12;82.33;102152.00;5015472;28;20581;-77
2023/09/27 05:17:02;;;;;;;6.47;4.53;;;;;;;15.11;82.31;102137.97;5013960;28;20459;-77
2023/09/27 05:19:29;;;;;;;9.35;4.78;;;;;;;15.12;82.27;102141.50;5014573;28;20538;-76
2023/09/27 05:21:56;;;;;;;8.65;4.40;;;;;;;15.09;82.47;102136.28;5012189;28;20052;-77
2023/09/27 05:24:24;;;;;;;9.30;4.63;;;;;;;15.13;82.60;102130.91;5017873;28;20458;-76
2023/09/27 05:26:51;;;;;;;6.38;4.68;;;;;;;15.12;82.82;102128.34;5017042;28;20045;-76
2023/09/27 05:29:18;;;;;;;9.13;4.63;;;;;;;15.15;82.45;102138.81;5015341;28;20745;-76
2023/09/27 05:31:45;;;;;;;10.07;4.85;;;;;;;15.12;82.46;102144.13;5019626;28;20073;-76
2023/09/27 05:34:12;;;;;;;5.90;4.43;;;;;;;15.15;82.52;102147.56;5013379;28;20053;-77
2023/09/27 05:36:40;;;;;;;6.97;4.22;;;;;;;15.15;82.51;102147.56;5015763;28;20072;-76
2023/09/27 05:39:09;;;;;;;6.47;4.10;;;;;;;15.19;82.38;102135.22;5012272;28;20052;-76
2023/09/27 05:41:38;;;;;;;4.45;3.45;;;;;;;15.20;82.43;102115.91;5014302;28;20128;-75
2023/09/27 05:44:05;;;;;;;4.03;3.55;;;;;;;15.20;82.34;102137.84;5015536;28;20450;-76
2023/09/27 05:46:33;;;;;;;9.50;4.10;;;;;;;15.21;82.63;102138.69;5018604;28;20046;-77
2023/09/27 05:49:02;;;;;;;7.53;4.28;;;;;;;15.21;82.58;102142.19;5011389;28;20057;-76
2023/09/27 05:51:30;;;;;;;5.30;4.15;;;;;;;15.22;82.84;102140.44;5020107;28;20053;-75
2023/09/27 05:53:58;;;;;;;5.40;4.60;;;;;;;15.10;82.78;102109.06;5021493;28;20078;-77
2023/09/27 05:56:25;;;;;;;4.20;3.80;;;;;;;15.26;83.00;102139.50;5012526;28;20100;-76
2023/09/27 05:58:53;;;;;;;4.55;4.15;;;;;;;15.26;83.00;102121.06;5014172;28;20041;-75
2023/09/27 06:01:20;;;;;;;5.05;3.75;;;;;;;15.27;83.09;102118.41;5018104;28;20045;-75
2023/09/27 06:03:47;;;;;;;8.02;3.50;;;;;;;15.28;83.26;102129.78;5010723;28;20650;-76
2023/09/27 06:06:13;;;;;;;5.18;4.68;;;;;;;15.29;83.14;102132.41;5011007;28;20760;-77
2023/09/27 06:08:40;;;;;;;5.72;4.18;;;;;;;15.33;83.20;102135.00;5015359;28;20046;-76
2023/09/27 06:11:09;;;;;;;5.07;3.92;;;;;;;15.34;83.67;102128.81;5015300;28;20125;-76
2023/09/27 06:13:37;;;;;;;5.10;4.32;;;;;;;15.34;83.34;102113.94;5015069;28;20084;-76
2023/09/27 06:16:13;;;;;;;3.70;3.40;;;;;;;15.35;83.30;102102.50;5015089;28;20050;-73
2023/09/27 06:18:40;;;;;;;8.93;3.70;;;;;;;15.37;83.33;102105.06;5012212;28;20477;-73
2023/09/27 06:21:07;;;;;;;4.38;3.97;;;;;;;15.38;83.26;102099.81;5010434;28;20049;-73
2023/09/27 06:23:35;;;;;;;6.72;4.47;;;;;;;15.40;83.29;102102.41;5012031;28;20120;-73
2023/09/27 06:26:02;;;;;;;4.75;3.97;;;;;;;15.42;83.32;102105.88;5008355;28;20133;-78
2023/09/27 06:28:29;;;;;;;4.72;4.30;;;;;;;15.43;83.43;102111.13;5015897;28;20049;-77
2023/09/27 06:30:57;;;;;;;8.40;4.55;;;;;;;15.44;83.31;102099.69;5013325;28;20052;-77
2023/09/27 06:33:25;;;;;;;4.10;3.70;;;;;;;15.45;83.32;102088.28;5018294;28;20072;-76
2023/09/27 06:35:53;;;;;;;7.57;4.63;;;;;;;15.48;83.33;102097.84;5007149;28;20137;-78
2023/09/27 06:38:22;;;;;;;6.78;5.38;;;;;;;15.46;83.51;102108.44;5018160;28;20065;-77
2023/09/27 06:40:51;;;;;;;5.97;4.78;;;;;;;15.49;83.35;102110.16;5012891;28;20549;-77
2023/09/27 06:43:17;;;;;;;8.90;5.13;;;;;;;15.50;83.42;102099.56;5011851;28;20054;-77
2023/09/27 06:45:49;;;;;;;5.35;4.68;;;;;;;15.55;83.65;102110.03;5018167;28;20058;-77
2023/09/27 06:48:18;;;;;;;4.88;4.00;;;;;;;15.55;83.76;102104.78;5016911;28;20049;-77
2023/09/27 06:50:47;;;;;;;9.38;4.20;;;;;;;15.58;83.78;102111.75;5011885;28;20522;-77
2023/09/27 06:53:14;;;;;;;7.28;5.15;;;;;;;15.59;83.70;102116.97;5023952;28;20130;-78
2023/09/27 06:55:41;;;;;;;5.57;4.80;;;;;;;15.62;83.59;102118.69;5013560;28;20050;-77
2023/09/27 06:58:08;;;;;;;5.35;4.43;;;;;;;15.64;83.70;102109.00;5021533;28;20058;-77
2023/09/27 07:00:35;;;;;;;7.68;4.82;;;;;;;15.65;83.69;102116.91;5013797;28;20048;-77
2023/09/27 07:03:02;;;;;;;5.65;4.07;;;;;;;15.68;83.58;102137.03;5015462;28;20132;-77
2023/09/27 07:05:31;;;;;;;8.10;6.35;;;;;;;15.64;83.61;102128.31;5009274;28;20581;-77
2023/09/27 07:07:59;;;;;;;7.68;5.28;;;;;;;15.71;83.68;102119.44;5022863;28;20041;-78
2023/09/27 07:10:26;;;;;;;9.27;5.70;;;;;;;15.74;83.82;102118.53;5014613;28;20056;-78
2023/09/27 07:12:54;;;;;;;9.20;5.28;;;;;;;15.75;83.63;102099.16;5020103;28;20053;-78
2023/09/27 07:15:22;;;;;;;5.30;4.78;;;;;;;15.78;83.77;102072.75;5017556;28;20510;-77
2023/09/27 07:17:49;;;;;;;5.53;4.88;;;;;;;15.80;83.83;102078.03;5019822;28;20046;-78
2023/09/27 07:20:23;;;;;;;7.50;6.05;;;;;;;15.77;83.78;102075.41;5012649;28;20054;-77
2023/09/27 07:22:50;;;;;;;6.72;5.68;;;;;;;15.81;83.88;102064.78;5018845;28;20045;-77
2023/09/27 07:25:19;;;;;;;11.23;5.85;;;;;;;15.87;83.87;102085.75;5012594;28;20045;-77
2023/09/27 07:27:48;;;;;;;5.25;4.53;;;;;;;15.91;84.08;102084.81;5012321;28;20054;-74
2023/09/27 07:30:23;;;;;;;6.47;5.15;;;;;;;15.93;83.90;102072.44;5018647;28;20415;-73
2023/09/27 07:32:50;;;;;;;132.32;11.00;;;;;;;15.94;83.51;102050.50;5010098;28;20046;-73
2023/09/27 07:35:18;;;;;;;16.98;5.88;;;;;;;15.98;83.75;102022.28;5016383;28;20060;-73
2023/09/27 07:37:45;;;;;;;10.40;5.03;;;;;;;16.00;83.77;102017.00;5010734;28;20049;-77
2023/09/27 07:40:14;;;;;;;8.10;4.18;;;;;;;16.04;84.06;102022.16;5015380;28;20053;-76
2023/09/27 07:42:44;;;;;;;5.57;4.72;;;;;;;16.07;83.87;102013.31;5018784;28;20566;-77
2023/09/27 07:45:20;;;;;;;6.63;4.60;;;;;;;16.09;83.81;102022.94;5022218;28;20065;-76
2023/09/27 07:47:48;;;;;;;5.88;4.28;;;;;;;16.15;83.77;102029.84;5016248;28;20144;-77
2023/09/27 07:50:16;;;;;;;8.07;4.90;;;;;;;16.17;83.95;102020.13;5016600;28;20049;-77
2023/09/27 07:52:43;;;;;;;9.65;4.63;;;;;;;16.20;84.20;102012.16;5022422;28;20083;-76
2023/09/27 07:55:14;;;;;;;8.48;4.93;;;;;;;16.24;84.00;102031.41;5010651;28;20044;-78
2023/09/27 07:57:43;;;;;;;4.35;3.95;;;;;;;16.27;84.01;102029.56;5016983;28;20457;-77
2023/09/27 08:00:15;;;;;;;6.47;4.93;;;;;;;16.30;84.05;102029.50;5014445;28;20095;-77
2023/09/27 08:02:42;;;;;;;6.55;4.78;;;;;;;16.35;83.89;102032.91;5016098;28;20050;-77
2023/09/27 08:05:10;;;;;;;5.20;3.78;;;;;;;16.39;83.63;102038.97;5018761;28;20049;-78
2023/09/27 08:07:37;;;;;;;9.82;4.30;;;;;;;16.42;83.76;102039.78;5020903;28;20049;-78
2023/09/27 08:10:06;;;;;;;5.25;3.92;;;;;;;16.47;83.72;102034.38;5016397;28;20431;-77
2023/09/27 08:12:34;;;;;;;7.35;3.78;;;;;;;16.50;83.62;102030.81;5015665;28;20160;-76
2023/09/27 08:15:03;;;;;;;6.78;3.50;;;;;;;16.53;83.66;102038.66;5012383;28;20053;-75
2023/09/27 08:17:31;;;;;;;13.13;6.13;;;;;;;16.55;83.52;102035.09;5020401;28;20053;-75
2023/09/27 08:19:58;;;;;;;9.43;4.68;;;;;;;16.59;83.28;102014.78;5018804;28;20053;-75
2023/09/27 08:22:25;;;;;;;8.07;3.90;;;;;;;16.66;83.29;102016.38;5014958;28;20064;-75
2023/09/27 08:24:52;;;;;;;6.75;4.15;;;;;;;16.72;83.55;102028.53;5015292;28;20059;-75
2023/09/27 08:27:19;;;;;;;7.28;3.85;;;;;;;16.75;83.23;102021.41;5015071;28;20046;-75
2023/09/27 08:29:46;;;;;;;6.75;3.63;;;;;;;16.79;83.22;102017.84;5015833;28;20056;-75
2023/09/27 08:32:15;;;;;;;7.47;4.40;;;;;;;16.84;83.27;102026.50;5023707;28;20045;-75
2023/09/27 08:34:42;;;;;;;7.70;3.90;;;;;;;16.86;82.82;102018.56;5013381;28;20731;-75
2023/09/27 08:37:11;;;;;;;8.95;4.30;;;;;;;16.95;82.73;102020.09;5019188;28;20499;-89
2023/09/27 08:39:38;;;;;;;4.18;3.10;;;;;;;16.99;82.74;102016.47;5021123;28;20049;-90
2023/09/27 08:42:05;;;;;;;7.15;4.05;;;;;;;17.02;82.68;102006.72;5024159;28;20048;-90
2023/09/27 08:44:32;;;;;;;6.43;3.53;;;;;;;17.08;82.70;102021.53;5024749;28;20045;-91
2023/09/27 08:46:59;;;;;;;6.13;4.03;;;;;;;17.13;82.63;102024.88;5022227;28;20100;-73
2023/09/27 08:49:27;;;;;;;7.45;3.67;;;;;;;17.17;82.37;102023.91;5014074;28;20049;-73
2023/09/27 08:51:55;;;;;;;3.58;3.08;;;;;;;17.22;82.40;102032.59;5016286;28;20615;-74
2023/09/27 08:54:23;;;;;;;3.38;2.95;;;;;;;17.27;82.16;102035.97;5012281;28;20446;-73
2023/09/27 08:56:52;;;;;;;8.43;4.07;;;;;;;17.33;81.67;102034.06;5015906;28;20037;-73
2023/09/27 08:59:20;;;;;;;8.18;3.00;;;;;;;17.37;81.40;102036.59;5021067;28;20049;-74
2023/09/27 09:01:48;;;;;;;5.22;2.85;;;;;;;17.36;81.23;102013.75;5012257;28;20050;-72
2023/09/27 09:04:15;;;;;;;5.82;3.03;;;;;;;17.43;81.09;102031.16;5016343;28;20058;-74
2023/09/27 09:06:47;;;;;;;5.28;2.85;;;;;;;17.44;80.72;102016.16;5013504;28;20054;-74
2023/09/27 09:09:14;;;;;;;4.53;3.53;;;;;;;17.51;80.34;102023.03;5017715;28;20053;-73
2023/09/27 09:11:47;;;;;;;6.70;3.47;;;;;;;17.55;79.83;102024.66;5011328;28;20050;-74
2023/09/27 09:14:17;;;;;;;3.25;2.25;;;;;;;17.58;79.95;102024.56;5014330;28;20661;-75
2023/09/27 09:16:51;;;;;;;3.67;2.55;;;;;;;17.61;79.56;102027.13;5009972;28;20146;-73
2023/09/27 09:19:23;;;;;;;4.82;2.83;;;;;;;17.65;79.38;102038.50;5014985;28;20141;-73
2023/09/27 09:22:00;;;;;;;5.63;3.63;;;;;;;17.68;79.09;102026.06;5011725;28;20103;-74
2023/09/27 09:24:27;;;;;;;3.70;2.90;;;;;;;17.67;78.89;102019.06;5013135;28;20049;-73
2023/09/27 09:27:07;;;;;;;5.72;2.78;;;;;;;17.72;78.56;102022.41;5015463;28;20073;-72
2023/09/27 09:29:49;;;;;;;4.20;3.25;;;;;;;17.76;78.71;102013.50;5015091;28;20072;-74
2023/09/27 09:32:17;;;;;;;6.22;3.83;;;;;;;17.75;78.48;102014.38;5013097;28;20048;-73
2023/09/27 09:34:46;;;;;;;6.28;3.80;;;;;;;17.78;78.42;102013.47;5011664;28;20960;-72
2023/09/27 09:37:19;;;;;;;4.25;2.97;;;;;;;17.82;78.40;102016.91;5016293;28;20562;-73
2023/09/27 09:39:46;;;;;;;4.85;2.92;;;;;;;17.83;78.04;102008.94;5013916;28;20132;-75
2023/09/27 09:42:14;;;;;;;5.90;3.42;;;;;;;17.86;77.90;102010.63;5017294;28;20052;-74
2023/09/27 09:44:41;;;;;;;3.53;3.22;;;;;;;17.87;77.93;102021.16;5013118;28;20425;-76
2023/09/27 09:47:12;;;;;;;4.90;3.97;;;;;;;17.88;77.89;102012.31;5013243;28;20046;-73
2023/09/27 09:49:41;;;;;;;6.30;4.10;;;;;;;17.89;77.62;102018.44;5018528;28;20048;-74
2023/09/27 09:52:12;;;;;;;5.13;4.60;;;;;;;17.89;77.65;102014.03;5011826;28;20057;-74
2023/09/27 09:54:46;;;;;;;7.90;4.75;;;;;;;17.93;77.50;102005.13;5018528;28;20557;-73
2023/09/27 09:57:14;;;;;;;4.57;4.17;;;;;;;17.82;77.70;101985.19;5012112;28;20041;-79
2023/09/27 09:59:53;;;;;;;7.50;4.82;;;;;;;17.97;77.70;102000.59;5023271;28;20060;-78
2023/09/27 10:02:24;;;;;;;6.68;4.22;;;;;;;17.99;77.72;101996.13;5017941;28;20045;-77
2023/09/27 10:04:55;;;;;;;5.10;4.15;;;;;;;18.01;77.54;102010.16;5017083;28;20053;-76
2023/09/27 10:07:23;;;;;;;5.63;4.65;;;;;;;18.03;77.53;101984.53;5014529;28;20129;-77
2023/09/27 10:09:52;;;;;;;5.32;4.13;;;;;;;18.06;77.25;101983.59;5012104;28;20766;-77
2023/09/27 10:12:22;;;;;;;4.93;4.20;;;;;;;18.04;77.30;101969.53;5013238;28;20053;-76
2023/09/27 10:14:50;;;;;;;4.03;3.72;;;;;;;18.11;76.90;101977.25;5016269;28;20712;-77
2023/09/27 10:17:22;;;;;;;5.50;4.25;;;;;;;18.10;77.21;101966.69;5014802;28;20049;-76
2023/09/27 10:20:12;;;;;;;5.32;4.40;;;;;;;18.17;77.04;101974.41;5012643;28;20049;-77
2023/09/27 10:22:40;;;;;;;8.55;3.63;;;;;;;18.21;77.19;101983.09;5015658;28;20049;-76
2023/09/27 10:25:34;;;;;;;7.32;5.50;;;;;;;18.24;76.96;101974.22;5017229;28;20049;-77
2023/09/27 10:28:08;;;;;;;9.77;5.93;;;;;;;18.28;76.82;101973.22;5014224;28;20045;-76
2023/09/27 10:31:07;;;;;;;6.50;5.50;;;;;;;18.32;76.88;101969.53;5020105;28;20058;-76
2023/09/27 10:33:34;;;;;;;4.15;3.45;;;;;;;18.34;76.74;101970.38;5012533;28;20050;-77
2023/09/27 10:36:29;;;;;;;7.20;3.95;;;;;;;18.38;76.48;101964.06;5012513;28;20042;-78
2023/09/27 10:39:06;;;;;;;3.72;3.40;;;;;;;18.40;76.10;101957.81;5015860;28;20053;-77
2023/09/27 10:41:58;;;;;;;6.03;3.03;;;;;;;18.43;76.20;101959.50;5016099;28;20049;-76
2023/09/27 10:44:30;;;;;;;3.45;3.15;;;;;;;18.45;76.09;101968.25;5008103;28;20042;-77
2023/09/27 10:46:58;;;;;;;5.85;4.05;;;;;;;18.41;76.04;101966.59;5014912;28;20051;-76
2023/09/27 10:49:26;;;;;;;4.03;3.72;;;;;;;18.51;76.10;101975.97;5009990;28;20048;-76
2023/09/27 10:51:53;;;;;;;5.88;3.70;;;;;;;18.54;75.88;101975.88;5017764;28;20046;-79
2023/09/27 10:54:23;;;;;;;6.80;3.78;;;;;;;18.56;75.23;101982.00;5018624;28;20471;-78
2023/09/27 10:56:53;;;;;;;4.78;3.22;;;;;;;18.53;75.26;101971.50;5012190;28;20045;-76
2023/09/27 10:59:27;;;;;;;5.90;4.20;;;;;;;18.61;75.15;101988.00;5018562;28;20053;-77
2023/09/27 11:01:55;;;;;;;5.88;3.22;;;;;;;18.65;75.18;101994.91;5010054;28;20061;-76
2023/09/27 11:04:23;;;;;;;3.40;2.97;;;;;;;18.67;75.07;101986.94;5013041;28;20046;-76
2023/09/27 11:06:50;;;;;;;3.55;2.90;;;;;;;18.71;75.46;101985.06;5009396;28;20471;-77
2023/09/27 11:09:19;;;;;;;5.40;3.63;;;;;;;18.75;75.15;101982.25;5016678;28;20081;-76
2023/09/27 11:11:47;;;;;;;4.85;3.05;;;;;;;18.78;74.65;101978.66;5015259;28;20104;-76
2023/09/27 11:14:24;;;;;;;6.32;3.60;;;;;;;18.82;74.51;101977.66;5022401;28;20061;-75
2023/09/27 11:16:53;;;;;;;4.22;3.35;;;;;;;18.85;74.52;101969.59;5018106;28;20092;-76
2023/09/27 11:19:28;;;;;;;7.53;3.00;;;;;;;18.89;74.09;101976.50;5021342;28;20104;-76
2023/09/27 11:21:55;;;;;;;8.05;3.15;;;;;;;18.91;73.97;101981.78;5017487;28;20045;-77
2023/09/27 11:24:22;;;;;;;6.45;3.13;;;;;;;18.94;73.76;101984.31;5012336;28;20046;-75
2023/09/27 11:26:48;;;;;;;7.72;4.18;;;;;;;18.94;73.72;101974.56;5012423;28;20052;-76
2023/09/27 11:29:15;;;;;;;4.13;3.50;;;;;;;18.96;73.90;101975.41;5013297;28;20064;-77